Time;durP1;ratioP1;P1;durP2;ratioP2;P2;SDS_P1;SDS_P2;PMS_P1;PMS_P2;Temp;Humidity;BMP_temperature;BMP_pressure;BME280_temperature;BME280_humidity;BME280_pressure;Samples;Min_cycle;Max_cycle;Signal;HPM_P1;HPM_P2
2022/03/28 00:01:33;;;;;;;21.70;2.88;;;7.20;99.90;;;;;;4826982;29;20504;-76
2022/03/28 00:03:59;;;;;;;9.93;2.28;;;7.20;99.90;;;;;;4827181;29;20094;-76
2022/03/28 00:06:25;;;;;;;6.55;2.45;;;7.20;99.90;;;;;;4827146;29;20099;-76
2022/03/28 00:08:52;;;;;;;7.90;2.40;;;7.20;99.90;;;;;;4827029;29;20046;-75
2022/03/28 00:11:17;;;;;;;10.00;2.67;;;7.30;99.90;;;;;;4811118;29;20148;-75
2022/03/28 00:13:44;;;;;;;7.20;2.47;;;7.20;99.90;;;;;;4827054;29;20096;-76
2022/03/28 00:16:10;;;;;;;10.60;2.63;;;7.00;99.90;;;;;;4826081;29;20125;-76
2022/03/28 00:18:36;;;;;;;8.80;2.83;;;7.00;99.90;;;;;;4826978;29;20089;-76
2022/03/28 00:21:02;;;;;;;9.25;2.78;;;7.00;99.90;;;;;;4826929;29;20052;-76
2022/03/28 00:23:30;;;;;;;7.90;2.20;;;7.10;99.90;;;;;;4827378;29;20058;-76
2022/03/28 00:25:56;;;;;;;7.90;2.50;;;7.10;99.90;;;;;;4827379;29;20082;-76
2022/03/28 00:28:23;;;;;;;5.88;2.67;;;7.00;99.90;;;;;;4826731;29;20475;-76
2022/03/28 00:30:49;;;;;;;5.60;2.55;;;7.00;99.90;;;;;;4826199;29;20054;-76
2022/03/28 00:33:15;;;;;;;5.68;2.53;;;7.00;99.90;;;;;;4826705;29;20062;-76
2022/03/28 00:35:41;;;;;;;8.70;3.42;;;7.00;99.90;;;;;;4826703;29;20117;-76
2022/03/28 00:38:08;;;;;;;6.47;2.88;;;7.00;99.90;;;;;;4826771;29;20055;-76
2022/03/28 00:40:34;;;;;;;7.40;2.85;;;7.20;99.90;;;;;;4826349;29;20492;-76
2022/03/28 00:43:05;;;;;;;10.23;3.38;;;7.00;99.90;;;;;;4825324;29;20062;-75
2022/03/28 00:45:31;;;;;;;6.28;3.28;;;7.00;99.90;;;;;;4827352;29;20523;-75
2022/03/28 00:47:58;;;;;;;9.70;3.28;;;6.90;99.90;;;;;;4826961;29;20053;-75
2022/03/28 00:50:24;;;;;;;8.88;4.03;;;6.90;99.90;;;;;;4826992;29;20050;-75
2022/03/28 00:52:50;;;;;;;10.45;4.18;;;6.90;99.90;;;;;;4826930;29;20081;-76
2022/03/28 00:55:16;;;;;;;10.05;3.67;;;6.90;99.90;;;;;;4826347;29;20051;-76
2022/03/28 00:57:42;;;;;;;9.25;3.80;;;6.90;99.90;;;;;;4826357;29;20052;-76
2022/03/28 01:00:12;;;;;;;11.13;4.45;;;6.90;99.90;;;;;;4826762;29;20058;-75
2022/03/28 01:02:38;;;;;;;9.98;4.07;;;6.90;99.90;;;;;;4827015;29;20403;-75
2022/03/28 01:05:04;;;;;;;9.55;4.47;;;7.00;99.90;;;;;;4826728;29;20060;-75
2022/03/28 01:07:30;;;;;;;10.75;4.53;;;7.00;99.90;;;;;;4826127;29;20107;-76
2022/03/28 01:09:58;;;;;;;12.15;4.70;;;7.00;99.90;;;;;;4826441;29;20050;-76
2022/03/28 01:12:30;;;;;;;11.23;4.70;;;7.00;99.90;;;;;;4826656;29;20054;-75
2022/03/28 01:14:56;;;;;;;22.02;5.53;;;7.10;99.90;;;;;;4825000;29;20137;-75
2022/03/28 01:20:06;;;;;;;11.07;5.53;;;7.00;99.90;;;;;;4825395;29;20154;-75
2022/03/28 01:22:32;;;;;;;9.65;5.57;;;7.00;99.90;;;;;;4826504;29;20050;-76
2022/03/28 01:25:04;;;;;;;9.18;5.22;;;7.00;99.90;;;;;;4824768;29;20080;-76
2022/03/28 01:27:29;;;;;;;21.73;6.70;;;7.00;99.90;;;;;;4825590;29;20061;-75
2022/03/28 01:29:55;;;;;;;19.40;6.90;;;7.00;99.90;;;;;;4825755;29;20050;-76
2022/03/28 01:32:21;;;;;;;16.83;6.90;;;7.00;99.90;;;;;;4825836;29;20097;-75
2022/03/28 01:34:46;;;;;;;13.90;6.18;;;7.00;99.90;;;;;;4825849;29;20050;-75
2022/03/28 01:37:12;;;;;;;11.00;6.13;;;6.90;99.90;;;;;;4824758;29;20133;-75
2022/03/28 01:39:38;;;;;;;11.68;5.43;;;6.90;99.90;;;;;;4840250;29;20126;-75
2022/03/28 01:42:04;;;;;;;13.82;5.65;;;6.90;99.90;;;;;;4824536;29;20475;-76
2022/03/28 01:44:30;;;;;;;16.95;5.90;;;6.90;99.90;;;;;;4839625;29;20076;-76
2022/03/28 01:46:55;;;;;;;29.15;7.10;;;6.90;99.90;;;;;;4825573;29;20050;-75
2022/03/28 01:49:21;;;;;;;15.50;7.32;;;6.80;99.90;;;;;;4824879;29;20400;-75
2022/03/28 01:51:49;;;;;;;11.98;5.93;;;6.80;99.90;;;;;;4825795;29;20577;-76
2022/03/28 01:54:15;;;;;;;16.92;6.75;;;6.80;99.90;;;;;;4825538;29;20196;-75
2022/03/28 01:56:42;;;;;;;15.98;6.60;;;6.90;99.90;;;;;;4825567;29;20069;-75
2022/03/28 01:59:08;;;;;;;22.08;7.03;;;6.80;99.90;;;;;;4825721;29;20450;-75
2022/03/28 02:01:35;;;;;;;13.80;6.95;;;7.00;99.90;;;;;;4840453;29;20060;-75
2022/03/28 02:04:08;;;;;;;12.05;6.45;;;6.80;99.90;;;;;;5098769;27;20499;-71
2022/03/28 02:06:34;;;;;;;12.50;6.97;;;6.90;99.90;;;;;;5071177;28;20052;-71
2022/03/28 02:09:00;;;;;;;14.77;6.90;;;6.80;99.90;;;;;;5075909;28;20053;-71
2022/03/28 02:11:26;;;;;;;15.15;6.90;;;6.90;99.90;;;;;;5081905;28;20036;-71
2022/03/28 02:13:51;;;;;;;21.63;7.35;;;6.90;99.90;;;;;;5058957;28;20048;-71
2022/03/28 02:16:17;;;;;;;25.23;7.22;;;6.90;99.90;;;;;;5088932;28;20048;-71
2022/03/28 02:18:43;;;;;;;21.30;7.95;;;6.90;99.90;;;;;;5076275;28;20044;-71
2022/03/28 02:21:09;;;;;;;29.17;8.05;;;6.90;99.90;;;;;;5077442;28;20453;-71
2022/03/28 02:23:35;;;;;;;35.40;8.07;;;6.90;99.90;;;;;;5091966;28;20045;-71
2022/03/28 02:26:03;;;;;;;52.88;10.18;;;6.90;99.90;;;;;;5079968;28;20049;-71
2022/03/28 02:28:29;;;;;;;25.40;7.85;;;7.00;99.90;;;;;;5079122;28;20051;-71
2022/03/28 02:30:55;;;;;;;26.17;8.35;;;7.00;99.90;;;;;;5083394;28;20045;-71
2022/03/28 02:33:21;;;;;;;19.40;7.43;;;7.00;99.90;;;;;;5077934;28;20064;-71
2022/03/28 02:35:47;;;;;;;34.63;8.23;;;7.00;99.90;;;;;;5080685;28;20033;-71
2022/03/28 02:38:12;;;;;;;15.95;6.75;;;7.00;99.90;;;;;;5090813;28;20551;-71
2022/03/28 02:40:38;;;;;;;17.83;6.90;;;7.00;99.90;;;;;;5092998;28;20096;-71
2022/03/28 02:43:05;;;;;;;24.52;6.95;;;6.90;99.90;;;;;;5092841;28;20048;-71
2022/03/28 02:45:35;;;;;;;23.38;7.00;;;6.80;99.90;;;;;;5076740;28;20053;-71
2022/03/28 02:48:03;;;;;;;93.50;11.05;;;6.70;99.90;;;;;;5074905;28;20134;-71
2022/03/28 02:50:32;;;;;;;28.38;6.88;;;6.70;99.90;;;;;;5076703;28;20044;-71
2022/03/28 02:52:59;;;;;;;21.90;7.13;;;6.70;99.90;;;;;;5091655;28;20079;-71
2022/03/28 02:55:24;;;;;;;18.80;6.15;;;6.70;99.90;;;;;;5059664;28;20041;-71
2022/03/28 02:57:52;;;;;;;16.67;5.43;;;6.70;99.90;;;;;;5075737;28;20060;-71
2022/03/28 03:00:18;;;;;;;21.48;6.68;;;6.70;99.90;;;;;;5075275;28;20040;-71
2022/03/28 03:02:44;;;;;;;28.15;6.30;;;6.60;99.90;;;;;;5077115;28;20063;-71
2022/03/28 03:05:11;;;;;;;30.67;7.05;;;6.60;99.90;;;;;;5074017;28;20060;-71
2022/03/28 03:07:37;;;;;;;32.30;6.88;;;6.60;99.90;;;;;;5077473;28;20463;-71
2022/03/28 03:10:04;;;;;;;44.30;7.80;;;6.60;99.90;;;;;;5057975;28;20108;-72
2022/03/28 03:12:29;;;;;;;43.15;8.15;;;6.60;99.90;;;;;;5076029;28;20071;-72
2022/03/28 03:14:55;;;;;;;33.50;7.60;;;6.60;99.90;;;;;;5032012;28;20040;-71
2022/03/28 03:17:21;;;;;;;18.63;6.50;;;6.60;99.90;;;;;;5062235;28;20044;-71
2022/03/28 03:19:47;;;;;;;37.20;7.72;;;6.50;99.90;;;;;;5079552;28;20048;-71
2022/03/28 03:22:14;;;;;;;29.40;7.90;;;6.60;99.90;;;;;;5062163;28;20092;-72
2022/03/28 03:24:41;;;;;;;28.63;7.43;;;6.60;99.90;;;;;;5062788;28;20091;-72
2022/03/28 03:27:07;;;;;;;21.80;7.32;;;6.60;99.90;;;;;;5044398;28;20052;-72
2022/03/28 03:29:34;;;;;;;30.98;7.72;;;6.60;99.90;;;;;;5045953;28;20033;-71
2022/03/28 03:31:59;;;;;;;42.08;8.82;;;6.70;99.90;;;;;;5061847;28;20051;-71
2022/03/28 03:34:26;;;;;;;31.77;8.80;;;6.70;99.90;;;;;;5061746;28;20485;-72
2022/03/28 03:36:52;;;;;;;32.58;8.68;;;6.70;99.90;;;;;;5045753;28;20104;-72
2022/03/28 03:39:17;;;;;;;39.42;7.93;;;6.70;99.90;;;;;;5043700;28;20064;-72
2022/03/28 03:41:43;;;;;;;20.42;6.68;;;6.70;99.90;;;;;;5062515;28;20045;-71
2022/03/28 03:44:09;;;;;;;57.65;8.75;;;6.70;99.90;;;;;;5060417;28;20056;-72
2022/03/28 03:46:35;;;;;;;22.23;6.78;;;6.70;99.90;;;;;;5045770;28;20128;-72
2022/03/28 03:49:00;;;;;;;19.33;6.95;;;6.70;99.90;;;;;;5044456;28;20108;-72
2022/03/28 03:51:26;;;;;;;17.20;5.97;;;6.60;99.90;;;;;;5061964;28;20044;-71
2022/03/28 03:53:52;;;;;;;18.90;6.75;;;6.60;99.90;;;;;;5061890;28;20060;-71
2022/03/28 03:56:18;;;;;;;38.30;6.93;;;6.70;99.90;;;;;;5060881;28;20052;-71
2022/03/28 03:58:43;;;;;;;22.00;6.55;;;6.60;99.90;;;;;;5045837;28;20049;-72
2022/03/28 04:01:10;;;;;;;25.33;6.03;;;6.60;99.90;;;;;;5059930;28;20045;-72
2022/03/28 04:03:36;;;;;;;20.23;6.47;;;6.50;99.90;;;;;;5045030;28;20114;-71
2022/03/28 04:06:02;;;;;;;28.17;7.80;;;6.50;99.90;;;;;;5060273;28;20052;-72
2022/03/28 04:08:28;;;;;;;28.90;6.40;;;6.50;99.90;;;;;;5044375;28;20045;-72
2022/03/28 04:10:55;;;;;;;21.52;6.80;;;6.50;99.90;;;;;;5061444;28;20041;-72
2022/03/28 04:13:21;;;;;;;14.52;6.20;;;6.50;99.90;;;;;;5060622;28;20404;-72
2022/03/28 04:15:48;;;;;;;27.38;6.82;;;6.50;99.90;;;;;;5061677;28;20511;-72
2022/03/28 04:18:14;;;;;;;13.60;5.95;;;6.50;99.90;;;;;;5043285;28;20045;-72
2022/03/28 04:20:40;;;;;;;44.17;8.10;;;6.50;99.90;;;;;;5061516;28;20191;-72
2022/03/28 04:23:05;;;;;;;41.90;7.60;;;6.50;99.90;;;;;;5043346;28;20036;-72
2022/03/28 04:25:31;;;;;;;23.77;7.30;;;6.50;99.90;;;;;;5060568;28;20136;-72
2022/03/28 04:27:58;;;;;;;20.33;6.03;;;6.60;99.90;;;;;;5060672;28;20080;-71
2022/03/28 04:30:23;;;;;;;53.53;7.72;;;6.50;99.90;;;;;;5060358;28;20075;-72
2022/03/28 04:32:50;;;;;;;32.55;6.38;;;6.60;99.90;;;;;;5044623;28;20049;-71
2022/03/28 04:35:15;;;;;;;24.65;6.85;;;6.50;99.90;;;;;;5059910;28;20405;-72
2022/03/28 04:37:43;;;;;;;32.75;8.07;;;6.50;99.90;;;;;;5061014;28;20205;-71
2022/03/28 04:40:12;;;;;;;27.20;7.00;;;6.40;99.90;;;;;;5059407;28;20048;-72
2022/03/28 04:42:38;;;;;;;18.95;6.97;;;6.30;99.90;;;;;;5060745;28;20052;-72
2022/03/28 04:45:07;;;;;;;39.47;8.77;;;6.30;99.90;;;;;;5060846;28;20055;-72
2022/03/28 04:47:33;;;;;;;23.55;7.95;;;6.40;99.90;;;;;;5061260;28;20088;-71
2022/03/28 04:49:59;;;;;;;21.00;7.35;;;6.40;99.90;;;;;;5061080;28;20176;-71
2022/03/28 04:52:26;;;;;;;24.00;7.28;;;6.40;99.90;;;;;;5059219;28;20033;-72
2022/03/28 04:54:52;;;;;;;19.98;7.38;;;6.40;99.90;;;;;;5061255;28;20423;-72
2022/03/28 04:57:18;;;;;;;18.02;7.93;;;6.40;99.90;;;;;;5060771;28;20072;-71
2022/03/28 04:59:43;;;;;;;16.95;8.27;;;6.30;99.90;;;;;;5060663;28;20056;-71
2022/03/28 05:02:09;;;;;;;12.32;7.07;;;6.30;99.90;;;;;;5060004;28;20060;-71
2022/03/28 05:04:35;;;;;;;14.40;7.35;;;6.40;99.90;;;;;;5059835;28;20052;-72
2022/03/28 05:07:01;;;;;;;15.10;7.97;;;6.30;99.90;;;;;;5060903;28;20098;-71
2022/03/28 05:09:27;;;;;;;16.83;8.07;;;6.30;99.90;;;;;;5058365;28;20083;-71
2022/03/28 05:11:53;;;;;;;17.58;9.07;;;6.30;99.90;;;;;;5060939;28;20473;-71
2022/03/28 05:14:19;;;;;;;15.40;8.00;;;6.30;99.90;;;;;;5058654;28;20134;-71
2022/03/28 05:16:45;;;;;;;14.60;7.70;;;6.30;99.90;;;;;;5060318;28;20077;-72
2022/03/28 05:19:11;;;;;;;16.67;8.50;;;6.30;99.90;;;;;;5043172;28;20056;-72
2022/03/28 05:21:36;;;;;;;16.65;9.43;;;6.30;99.90;;;;;;5059564;28;20048;-72
2022/03/28 05:24:02;;;;;;;13.80;7.68;;;6.30;99.90;;;;;;5060416;28;20049;-71
2022/03/28 05:26:28;;;;;;;17.27;8.05;;;6.30;99.90;;;;;;5058759;28;20393;-72
2022/03/28 05:28:54;;;;;;;15.00;6.88;;;6.30;99.90;;;;;;5044027;28;20041;-72
2022/03/28 05:31:20;;;;;;;14.18;8.32;;;6.30;99.90;;;;;;5058677;28;20045;-72
2022/03/28 05:33:46;;;;;;;14.05;7.30;;;6.20;99.90;;;;;;5043288;28;20059;-72
2022/03/28 05:36:13;;;;;;;12.00;7.38;;;6.20;99.90;;;;;;5059496;28;20080;-72
2022/03/28 05:38:40;;;;;;;13.90;6.88;;;6.20;99.90;;;;;;5058728;28;20052;-72
2022/03/28 05:41:06;;;;;;;12.07;7.22;;;6.10;99.90;;;;;;5060274;28;20078;-72
2022/03/28 05:43:34;;;;;;;13.95;7.97;;;6.10;99.90;;;;;;5058172;28;20052;-72
2022/03/28 05:46:00;;;;;;;14.10;7.75;;;6.00;99.90;;;;;;5060522;28;20037;-73
2022/03/28 05:48:26;;;;;;;13.63;7.85;;;6.00;99.90;;;;;;5058464;28;20049;-72
2022/03/28 05:50:52;;;;;;;14.52;7.80;;;6.00;99.90;;;;;;5043587;28;20063;-71
2022/03/28 05:53:18;;;;;;;13.07;7.50;;;5.90;99.90;;;;;;5058972;28;20072;-72
2022/03/28 05:55:44;;;;;;;13.38;7.40;;;5.90;99.90;;;;;;5042542;28;20049;-72
2022/03/28 05:58:10;;;;;;;18.13;7.70;;;5.90;99.90;;;;;;5059865;28;20044;-71
2022/03/28 06:00:39;;;;;;;14.95;8.27;;;6.00;99.90;;;;;;5059571;28;20040;-72
2022/03/28 06:03:05;;;;;;;15.18;7.80;;;6.00;99.90;;;;;;5059725;28;20067;-72
2022/03/28 06:05:37;;;;;;;13.95;6.90;;;6.00;99.90;;;;;;5057915;28;20108;-72
2022/03/28 06:08:04;;;;;;;15.50;8.25;;;6.00;99.90;;;;;;5059211;28;20056;-73
2022/03/28 06:10:30;;;;;;;15.63;7.60;;;6.10;99.90;;;;;;5058745;28;20048;-72
2022/03/28 06:12:55;;;;;;;13.93;7.68;;;6.10;99.90;;;;;;5059105;28;20056;-72
2022/03/28 06:15:22;;;;;;;15.23;8.18;;;6.10;99.90;;;;;;5043105;28;20098;-72
2022/03/28 06:17:48;;;;;;;14.70;7.32;;;6.10;99.90;;;;;;5041511;28;20064;-72
2022/03/28 06:20:14;;;;;;;15.40;7.78;;;6.10;99.90;;;;;;5043245;28;20037;-74
2022/03/28 06:22:40;;;;;;;19.98;8.80;;;6.10;99.90;;;;;;5057985;28;20570;-73
2022/03/28 06:25:07;;;;;;;15.15;7.85;;;6.10;99.90;;;;;;5043078;28;20033;-73
2022/03/28 06:27:33;;;;;;;17.35;7.45;;;6.10;99.90;;;;;;5059898;28;20053;-73
2022/03/28 06:29:59;;;;;;;16.65;7.85;;;6.20;99.90;;;;;;5042566;28;20048;-73
2022/03/28 06:32:24;;;;;;;14.55;7.90;;;6.20;99.90;;;;;;5059436;28;20056;-73
2022/03/28 06:34:52;;;;;;;15.52;7.47;;;6.20;99.90;;;;;;5058031;28;20080;-72
2022/03/28 06:37:22;;;;;;;13.65;7.32;;;6.20;99.90;;;;;;5059517;28;20077;-72
2022/03/28 06:39:48;;;;;;;15.02;7.68;;;6.20;99.90;;;;;;5040986;28;20449;-72
2022/03/28 06:42:14;;;;;;;16.45;7.78;;;6.20;99.90;;;;;;5042967;28;20076;-72
2022/03/28 06:44:40;;;;;;;16.92;8.27;;;6.20;99.90;;;;;;5041780;28;20097;-72
2022/03/28 06:47:06;;;;;;;15.30;8.25;;;6.30;99.90;;;;;;5059197;28;20084;-72
2022/03/28 06:49:32;;;;;;;14.05;8.18;;;6.30;99.90;;;;;;5060743;28;20049;-72
2022/03/28 06:51:58;;;;;;;13.98;7.68;;;6.30;99.90;;;;;;5061575;28;20045;-72
2022/03/28 06:54:24;;;;;;;15.82;6.93;;;6.40;99.90;;;;;;5046915;28;20114;-72
2022/03/28 06:56:50;;;;;;;11.57;6.22;;;6.40;99.90;;;;;;5062907;28;20083;-73
2022/03/28 06:59:16;;;;;;;14.63;6.60;;;6.30;99.90;;;;;;5046709;28;20937;-73
2022/03/28 07:01:43;;;;;;;11.00;6.15;;;6.20;99.90;;;;;;5061706;28;20113;-72
2022/03/28 07:04:12;;;;;;;13.35;7.20;;;6.20;99.90;;;;;;5062523;28;20049;-72
2022/03/28 07:06:38;;;;;;;14.75;7.60;;;6.30;99.90;;;;;;5063070;28;20071;-72
2022/03/28 07:09:05;;;;;;;11.68;6.57;;;6.40;99.90;;;;;;5061074;28;20100;-72
2022/03/28 07:11:31;;;;;;;11.30;6.07;;;6.30;99.90;;;;;;5063062;28;20053;-72
2022/03/28 07:13:57;;;;;;;10.80;5.75;;;6.40;99.90;;;;;;5044521;28;20057;-72
2022/03/28 07:16:23;;;;;;;12.38;6.13;;;6.40;99.90;;;;;;5059767;28;20048;-72
2022/03/28 07:18:48;;;;;;;13.30;6.95;;;6.60;99.90;;;;;;5076752;28;20081;-72
2022/03/28 07:21:14;;;;;;;10.43;5.68;;;6.40;99.90;;;;;;5077894;28;20053;-72
2022/03/28 07:23:40;;;;;;;12.73;5.93;;;6.40;99.90;;;;;;5044535;28;20049;-72
2022/03/28 07:26:08;;;;;;;9.63;5.10;;;6.40;99.90;;;;;;5075813;28;20132;-72
2022/03/28 07:28:35;;;;;;;11.25;5.47;;;6.50;99.90;;;;;;5061646;28;20497;-73
2022/03/28 07:31:01;;;;;;;9.63;5.38;;;6.50;99.90;;;;;;5043763;28;20060;-72
2022/03/28 07:33:27;;;;;;;10.18;4.13;;;6.50;99.90;;;;;;5061958;28;20044;-72
2022/03/28 07:35:52;;;;;;;7.00;3.83;;;6.50;99.90;;;;;;5044079;28;20063;-72
2022/03/28 07:38:18;;;;;;;9.38;4.88;;;6.60;99.90;;;;;;5044766;28;20376;-72
2022/03/28 07:40:45;;;;;;;9.02;4.45;;;6.60;99.90;;;;;;5044652;28;20083;-72
2022/03/28 07:43:10;;;;;;;8.80;3.92;;;6.60;99.90;;;;;;5060952;28;20060;-73
2022/03/28 07:45:36;;;;;;;7.03;3.67;;;6.60;99.90;;;;;;5061969;28;20041;-72
2022/03/28 07:48:02;;;;;;;8.95;3.95;;;6.60;99.90;;;;;;5059460;28;20045;-72
2022/03/28 07:50:29;;;;;;;6.88;3.30;;;6.60;99.90;;;;;;5045635;28;20041;-72
2022/03/28 07:52:55;;;;;;;6.22;3.17;;;6.60;99.90;;;;;;5059839;28;20178;-72
2022/03/28 07:55:21;;;;;;;6.05;2.83;;;6.70;99.90;;;;;;5061909;28;20074;-72
2022/03/28 07:57:47;;;;;;;6.78;3.22;;;6.70;99.90;;;;;;5062198;28;20049;-72
2022/03/28 08:00:15;;;;;;;7.47;3.60;;;6.70;99.90;;;;;;5060686;28;20432;-72
2022/03/28 08:02:42;;;;;;;7.25;3.53;;;6.80;99.90;;;;;;5061249;28;20053;-72
2022/03/28 08:05:09;;;;;;;6.65;3.53;;;6.80;99.90;;;;;;5059846;28;20057;-72
2022/03/28 08:07:36;;;;;;;5.70;2.50;;;6.80;99.90;;;;;;5078311;28;20045;-72
2022/03/28 08:10:06;;;;;;;8.27;3.15;;;6.90;99.90;;;;;;5060076;28;20055;-72
2022/03/28 08:12:33;;;;;;;7.53;3.63;;;6.90;99.90;;;;;;5061412;28;20053;-73
2022/03/28 08:14:59;;;;;;;8.98;4.03;;;6.80;99.90;;;;;;5044121;28;20041;-72
2022/03/28 08:17:25;;;;;;;7.93;3.75;;;6.90;99.90;;;;;;5043358;28;20056;-73
2022/03/28 08:19:50;;;;;;;6.75;3.40;;;6.80;99.90;;;;;;5044821;28;20049;-72
2022/03/28 08:22:17;;;;;;;6.53;3.08;;;6.80;99.90;;;;;;5059497;28;20053;-72
2022/03/28 08:24:43;;;;;;;7.18;3.20;;;6.90;99.90;;;;;;5044469;28;20060;-72
2022/03/28 08:27:09;;;;;;;6.13;2.70;;;6.90;99.90;;;;;;5059637;28;20460;-73
2022/03/28 08:29:35;;;;;;;6.22;3.15;;;7.00;99.90;;;;;;5044319;28;20041;-73
2022/03/28 08:32:02;;;;;;;5.45;2.83;;;7.00;99.90;;;;;;5060285;28;20079;-73
2022/03/28 08:34:29;;;;;;;6.65;2.97;;;7.00;99.90;;;;;;5060084;28;20057;-73
2022/03/28 08:36:55;;;;;;;6.40;3.13;;;7.10;99.90;;;;;;5061170;28;20116;-72
2022/03/28 08:39:21;;;;;;;6.35;3.13;;;7.10;99.90;;;;;;5058033;28;20049;-73
2022/03/28 08:41:48;;;;;;;5.90;3.22;;;7.10;99.90;;;;;;5061193;28;20041;-73
2022/03/28 08:44:15;;;;;;;6.72;3.15;;;7.10;99.90;;;;;;5059096;28;20532;-73
2022/03/28 08:46:43;;;;;;;6.78;3.22;;;7.10;99.90;;;;;;5060399;28;20072;-72
2022/03/28 08:49:09;;;;;;;5.55;3.35;;;7.00;99.90;;;;;;5043316;28;20055;-73
2022/03/28 08:51:35;;;;;;;6.53;3.35;;;7.10;99.90;;;;;;5060132;28;20033;-73
2022/03/28 08:54:01;;;;;;;5.53;3.38;;;7.20;99.90;;;;;;5060768;28;20052;-73
2022/03/28 08:56:27;;;;;;;5.88;3.17;;;7.20;99.90;;;;;;5059032;28;20049;-73
2022/03/28 08:58:52;;;;;;;6.47;3.33;;;7.30;99.90;;;;;;5060457;28;20491;-73
2022/03/28 09:01:22;;;;;;;6.03;3.20;;;7.40;99.90;;;;;;5059884;28;20436;-73
2022/03/28 09:03:49;;;;;;;5.70;3.13;;;7.50;99.90;;;;;;5043558;28;20057;-73
2022/03/28 09:06:40;;;;;;;5.78;3.28;;;7.50;99.90;;;;;;5076373;28;20446;-72
2022/03/28 09:09:10;;;;;;;7.75;3.60;;;7.60;99.90;;;;;;5058865;28;20211;-72
2022/03/28 09:11:35;;;;;;;5.72;3.45;;;7.70;99.90;;;;;;5041915;28;20087;-73
2022/03/28 09:14:01;;;;;;;6.53;2.85;;;7.80;99.90;;;;;;5057853;28;20048;-73
2022/03/28 09:16:31;;;;;;;5.32;2.95;;;7.80;99.90;;;;;;5058132;28;20550;-73
2022/03/28 09:18:57;;;;;;;6.43;3.15;;;7.90;99.90;;;;;;5057758;28;20056;-73
2022/03/28 09:21:25;;;;;;;6.65;2.85;;;7.90;99.90;;;;;;5041228;28;20037;-73
2022/03/28 09:23:52;;;;;;;5.05;3.10;;;8.00;99.90;;;;;;5036346;28;20053;-73
2022/03/28 09:26:23;;;;;;;4.82;2.65;;;7.90;99.90;;;;;;5068097;28;20045;-72
2022/03/28 09:28:53;;;;;;;5.97;3.03;;;8.00;99.90;;;;;;5062161;28;20136;-73
2022/03/28 09:31:31;;;;;;;6.13;3.30;;;8.00;99.90;;;;;;5067725;28;20052;-72
2022/03/28 09:33:58;;;;;;;4.82;2.67;;;8.00;99.90;;;;;;5074694;28;20064;-72
2022/03/28 09:37:01;;;;;;;5.00;2.50;;;8.10;99.90;;;;;;5071185;28;20059;-72
2022/03/28 09:39:32;;;;;;;5.68;3.10;;;8.20;99.90;;;;;;5038505;28;20052;-73
2022/03/28 09:42:04;;;;;;;5.95;3.00;;;8.30;99.90;;;;;;5055584;28;20061;-74
2022/03/28 09:44:43;;;;;;;6.43;3.35;;;8.30;99.90;;;;;;5038675;28;20054;-72
2022/03/28 09:47:18;;;;;;;5.50;3.17;;;8.40;99.90;;;;;;5054201;28;20105;-73
2022/03/28 09:49:46;;;;;;;5.93;3.20;;;8.50;99.90;;;;;;5022237;28;20053;-72
2022/03/28 09:52:13;;;;;;;5.57;2.83;;;8.60;99.90;;;;;;5069968;28;20120;-72
2022/03/28 09:54:57;;;;;;;5.45;3.10;;;8.60;99.90;;;;;;5038119;28;20161;-72
2022/03/28 09:57:31;;;;;;;4.93;2.70;;;8.60;99.90;;;;;;5038665;28;20088;-72
2022/03/28 10:00:08;;;;;;;5.78;3.35;;;8.60;99.90;;;;;;5070483;28;20049;-72
2022/03/28 10:02:35;;;;;;;6.72;3.65;;;8.60;99.90;;;;;;5021290;28;20061;-72
2022/03/28 10:05:01;;;;;;;5.30;3.28;;;8.70;99.90;;;;;;5070071;28;20053;-73
2022/03/28 10:07:27;;;;;;;7.72;3.40;;;8.70;99.90;;;;;;5054694;28;20053;-72
2022/03/28 10:09:53;;;;;;;5.53;3.00;;;8.90;99.90;;;;;;5070238;28;20046;-72
2022/03/28 10:12:21;;;;;;;5.68;3.17;;;9.00;99.90;;;;;;5067717;28;20519;-72
2022/03/28 10:14:54;;;;;;;6.20;3.28;;;8.90;99.90;;;;;;5040659;28;20072;-72
2022/03/28 10:17:20;;;;;;;5.72;3.08;;;9.00;99.90;;;;;;5037103;28;20030;-73
2022/03/28 10:19:46;;;;;;;5.82;3.38;;;9.10;99.90;;;;;;5038007;28;20045;-72
2022/03/28 10:22:20;;;;;;;6.88;3.28;;;9.10;99.90;;;;;;5053002;28;20510;-72
2022/03/28 10:24:46;;;;;;;6.13;3.40;;;9.10;99.90;;;;;;5039797;28;20105;-72
2022/03/28 10:27:13;;;;;;;5.57;2.90;;;8.90;99.90;;;;;;5057497;28;20100;-72
2022/03/28 10:29:41;;;;;;;6.35;3.42;;;8.90;99.90;;;;;;5057885;28;20049;-72
2022/03/28 10:32:19;;;;;;;6.40;3.33;;;8.90;99.90;;;;;;5067107;28;20048;-72
2022/03/28 10:34:54;;;;;;;6.95;3.50;;;9.00;99.90;;;;;;5060601;28;20108;-72
2022/03/28 10:37:49;;;;;;;6.72;3.55;;;9.00;99.90;;;;;;5061612;28;20436;-73
2022/03/28 10:40:25;;;;;;;7.85;4.20;;;9.10;99.90;;;;;;5060825;28;20049;-72
2022/03/28 10:43:02;;;;;;;6.65;3.10;;;9.10;99.90;;;;;;5060683;28;20079;-72
2022/03/28 10:45:33;;;;;;;6.00;3.17;;;9.10;99.90;;;;;;5061387;28;20040;-72
2022/03/28 10:47:59;;;;;;;6.55;3.35;;;9.10;99.90;;;;;;5060273;28;20488;-72
2022/03/28 10:50:50;;;;;;;6.20;3.53;;;9.10;99.90;;;;;;5062661;28;20069;-72
2022/03/28 10:53:27;;;;;;;6.30;3.53;;;9.20;99.90;;;;;;5060451;28;20057;-71
2022/03/28 10:56:05;;;;;;;6.43;3.63;;;9.40;99.90;;;;;;5060490;28;20049;-72
2022/03/28 10:58:44;;;;;;;7.05;3.88;;;9.50;99.90;;;;;;5044646;28;20420;-72
2022/03/28 11:01:12;;;;;;;6.13;4.03;;;9.50;99.90;;;;;;5060338;28;20401;-72
2022/03/28 11:03:58;;;;;;;5.60;3.78;;;9.60;99.90;;;;;;5060429;28;20045;-72
2022/03/28 11:06:53;;;;;;;7.55;3.95;;;9.80;99.90;;;;;;5074221;28;20049;-72
2022/03/28 11:09:54;;;;;;;8.25;3.60;;;10.00;99.90;;;;;;5074590;28;20072;-72
2022/03/28 11:12:39;;;;;;;5.20;3.42;;;10.10;99.90;;;;;;5061951;28;20049;-72
2022/03/28 11:15:24;;;;;;;7.22;3.80;;;9.90;99.90;;;;;;5061900;28;20143;-72
2022/03/28 11:18:02;;;;;;;7.15;3.95;;;9.90;99.90;;;;;;5059285;28;20116;-72
2022/03/28 11:20:42;;;;;;;6.47;3.60;;;9.90;99.90;;;;;;5060634;28;20389;-72
2022/03/28 11:23:09;;;;;;;6.93;4.25;;;10.10;99.90;;;;;;5076408;28;20082;-72
2022/03/28 11:25:41;;;;;;;6.05;3.85;;;10.40;99.90;;;;;;5060388;28;20049;-72
2022/03/28 11:28:14;;;;;;;7.75;4.20;;;10.70;99.90;;;;;;5066266;28;20123;-72
2022/03/28 11:30:49;;;;;;;6.57;3.90;;;10.90;99.90;;;;;;5079231;28;20064;-72
2022/03/28 11:33:36;;;;;;;8.40;4.55;;;11.00;99.90;;;;;;5061648;28;20045;-72
2022/03/28 11:36:03;;;;;;;6.05;3.90;;;11.00;99.90;;;;;;5048509;28;20118;-72
2022/03/28 11:38:36;;;;;;;6.13;4.20;;;11.10;99.90;;;;;;5059147;28;20504;-73
2022/03/28 11:41:02;;;;;;;6.47;4.20;;;11.20;99.90;;;;;;5060399;28;20116;-73
2022/03/28 11:43:29;;;;;;;6.88;4.07;;;11.30;99.90;;;;;;5058416;28;20186;-72
2022/03/28 11:45:55;;;;;;;8.68;4.30;;;11.40;99.90;;;;;;5060336;28;20040;-72
2022/03/28 11:48:21;;;;;;;7.10;3.95;;;11.60;99.90;;;;;;5042943;28;20056;-72
2022/03/28 11:50:49;;;;;;;6.82;4.63;;;11.80;99.90;;;;;;5059885;28;20503;-72
2022/03/28 11:53:16;;;;;;;6.65;4.75;;;11.70;99.90;;;;;;5059488;28;20045;-72
2022/03/28 11:55:49;;;;;;;5.82;3.97;;;11.70;99.90;;;;;;5042849;28;20094;-71
2022/03/28 11:58:16;;;;;;;8.73;4.85;;;11.60;99.90;;;;;;5061558;28;20052;-71
2022/03/28 12:00:48;;;;;;;7.47;4.80;;;11.60;99.90;;;;;;5058754;28;20382;-72
2022/03/28 12:03:16;;;;;;;7.35;4.95;;;11.70;99.90;;;;;;5059828;28;20049;-71
2022/03/28 12:05:45;;;;;;;8.77;5.43;;;11.70;99.90;;;;;;5059279;28;20578;-72
2022/03/28 12:08:17;;;;;;;8.38;5.15;;;11.90;99.90;;;;;;5043031;28;20088;-72
2022/03/28 12:10:52;;;;;;;9.00;5.88;;;12.20;99.90;;;;;;5048417;28;20045;-72
2022/03/28 12:13:21;;;;;;;7.68;5.15;;;12.40;99.90;;;;;;5039166;28;20061;-73
2022/03/28 12:15:49;;;;;;;9.70;5.63;;;12.70;99.90;;;;;;5046975;28;20045;-72
2022/03/28 12:18:16;;;;;;;7.00;4.63;;;12.90;99.90;;;;;;5058305;28;20041;-72
2022/03/28 12:20:51;;;;;;;8.98;5.70;;;12.90;99.90;;;;;;5042790;28;20053;-72
2022/03/28 12:23:19;;;;;;;7.47;5.20;;;12.90;99.90;;;;;;5059119;28;20113;-72
2022/03/28 12:25:46;;;;;;;9.02;6.57;;;12.70;99.90;;;;;;5058415;28;20078;-72
2022/03/28 12:28:26;;;;;;;8.73;5.95;;;12.60;99.90;;;;;;5059758;28;20041;-72
2022/03/28 12:30:59;;;;;;;8.38;6.05;;;12.70;99.90;;;;;;5058169;28;20099;-72
2022/03/28 12:33:35;;;;;;;7.55;5.50;;;12.90;99.90;;;;;;5058943;28;20105;-72
2022/03/28 12:36:04;;;;;;;10.27;7.00;;;13.00;99.90;;;;;;5060409;28;20048;-72
2022/03/28 12:38:33;;;;;;;8.80;5.72;;;13.30;99.90;;;;;;5077922;28;20500;-72
2022/03/28 12:41:11;;;;;;;8.80;6.20;;;13.70;99.90;;;;;;5079208;28;20057;-72
2022/03/28 12:43:38;;;;;;;8.35;5.90;;;14.30;99.90;;;;;;5084868;28;20053;-71
2022/03/28 12:46:06;;;;;;;9.32;6.40;;;14.70;99.90;;;;;;5038086;28;20071;-70
2022/03/28 12:48:44;;;;;;;8.80;5.82;;;15.00;99.90;;;;;;5024905;28;20061;-69
2022/03/28 12:51:12;;;;;;;7.97;5.68;;;15.20;99.90;;;;;;5038285;28;20053;-70
2022/03/28 12:53:40;;;;;;;9.90;6.38;;;15.70;99.90;;;;;;5057734;28;20063;-70
2022/03/28 12:56:20;;;;;;;9.48;5.97;;;15.80;99.90;;;;;;5057909;28;20051;-70
2022/03/28 12:58:58;;;;;;;9.98;6.30;;;16.10;99.90;;;;;;5058597;28;20113;-70